createdAt,value
2023-02-13T00:00:53.476Z,-10.91
2023-02-13T00:04:00.319Z,-10.96
2023-02-13T00:07:04.883Z,-11.00
2023-02-13T00:10:09.361Z,-10.91
2023-02-13T00:13:13.551Z,-10.66
2023-02-13T00:16:17.309Z,-10.42
2023-02-13T00:19:23.897Z,-10.18
2023-02-13T00:22:33.052Z,-9.93
2023-02-13T00:25:36.418Z,-9.68
2023-02-13T00:28:39.799Z,-9.56
2023-02-13T00:31:44.806Z,-9.42
2023-02-13T00:34:53.946Z,-9.63
2023-02-13T00:38:01.467Z,-9.78
2023-02-13T00:41:05.917Z,-9.86
2023-02-13T00:47:28.556Z,-9.92
2023-02-13T00:53:50.223Z,-9.85
2023-02-13T00:57:00.101Z,-9.86
2023-02-13T01:00:06.389Z,-9.83
2023-02-13T01:03:10.666Z,-9.73
2023-02-13T01:06:24.869Z,-9.62
2023-02-13T01:09:30.989Z,-9.55
2023-02-13T01:12:34.553Z,-9.54
2023-02-13T01:15:50.645Z,-9.47
2023-02-13T01:25:34.952Z,-9.33
2023-02-13T01:28:43.260Z,-9.31
2023-02-13T01:31:49.271Z,-9.24
2023-02-13T01:34:55.386Z,-9.14
2023-02-13T01:38:10.774Z,-9.07
2023-02-13T01:51:35.028Z,-8.65
2023-02-13T01:54:41.847Z,-8.51
2023-02-13T02:01:13.051Z,-8.22
2023-02-13T02:04:35.693Z,-8.10
2023-02-13T02:07:50.585Z,-8.01
2023-02-13T02:11:19.464Z,-7.88
2023-02-13T02:21:12.480Z,-7.62
2023-02-13T02:24:57.710Z,-7.57
2023-02-13T02:32:29.966Z,-7.46
2023-02-13T02:39:03.500Z,-7.31
2023-02-13T02:42:39.116Z,-7.24
2023-02-13T02:45:58.845Z,-7.15
2023-02-13T02:53:11.557Z,-7.01
2023-02-13T02:56:33.361Z,-6.89
2023-02-13T02:59:55.807Z,-6.75
2023-02-13T03:07:00.779Z,-6.58
2023-02-13T03:10:42.528Z,-6.50
2023-02-13T03:25:38.896Z,-6.30
2023-02-13T03:29:43.916Z,-6.28
2023-02-13T03:45:11.683Z,-5.84
2023-02-13T05:21:52.489Z,-3.56
2023-02-13T05:38:47.673Z,-3.18
2023-02-13T05:42:00.835Z,-3.09
2023-02-13T05:48:58.752Z,-2.91
2023-02-13T05:55:25.280Z,-2.75
2023-02-13T05:58:32.251Z,-2.80
2023-02-13T06:05:19.488Z,-2.77
2023-02-13T06:08:32.648Z,-2.72
2023-02-13T06:44:53.824Z,-1.86
2023-02-13T06:55:04.785Z,-1.77
2023-02-13T07:08:47.453Z,-1.65
2023-02-13T07:11:55.886Z,-1.62
2023-02-13T07:29:34.494Z,-0.72
2023-02-13T07:42:45.668Z,-1.40
2023-02-13T07:45:58.879Z,-1.34
2023-02-13T07:52:25.250Z,-1.37
2023-02-13T07:55:35.194Z,-1.27
2023-02-13T07:58:49.505Z,-1.00
2023-02-13T08:01:55.848Z,-0.73
2023-02-13T08:48:32.726Z,-1.89
2023-02-13T08:54:56.483Z,-2.05
2023-02-13T09:08:17.298Z,-2.31
2023-02-13T09:11:25.931Z,-2.38
2023-02-13T10:02:34.974Z,-3.76
2023-02-13T10:06:00.495Z,-3.83
2023-02-13T10:13:00.213Z,-4.02
2023-02-13T10:19:46.990Z,-4.22
2023-02-13T10:23:15.807Z,-4.33
2023-02-13T10:40:42.308Z,-4.66
2023-02-13T10:52:02.130Z,-4.88
2023-02-13T10:55:55.110Z,-4.94
2023-02-13T11:02:44.499Z,-5.12
2023-02-13T11:09:09.360Z,-5.18
2023-02-13T11:19:58.096Z,-5.35
2023-02-13T11:23:34.815Z,-5.40
2023-02-13T11:30:00.369Z,-5.54
2023-02-13T11:40:33.343Z,-5.73
2023-02-13T11:44:21.693Z,-5.84
2023-02-13T11:47:45.706Z,-5.94
2023-02-13T12:01:46.722Z,-6.71
2023-02-13T12:04:57.661Z,-6.85
2023-02-13T12:08:03.134Z,-6.98
2023-02-13T12:14:52.782Z,-7.20
2023-02-13T12:53:20.223Z,-8.02
2023-02-13T12:56:28.886Z,-8.13
2023-02-13T13:18:12.532Z,-8.44
2023-02-13T14:27:27.510Z,-9.54
2023-02-13T14:30:43.618Z,-9.55
2023-02-13T14:34:02.269Z,-9.55
2023-02-13T14:37:31.179Z,-9.58
2023-02-13T14:40:50.140Z,-9.52
2023-02-13T14:44:00.534Z,-9.56
2023-02-13T14:47:17.002Z,-9.54
2023-02-13T14:50:32.661Z,-9.61
2023-02-13T14:53:58.527Z,-9.65
2023-02-13T14:57:10.071Z,-9.61
2023-02-13T15:00:31.816Z,-9.66
2023-02-13T15:03:49.835Z,-9.69
2023-02-13T15:06:57.017Z,-9.90
2023-02-13T15:10:38.637Z,-10.10
2023-02-13T15:13:42.308Z,-10.28
2023-02-13T15:16:57.772Z,-10.45
2023-02-13T15:20:30.324Z,-10.58
2023-02-13T15:23:37.571Z,-10.65
2023-02-13T15:26:42.818Z,-10.63
2023-02-13T15:30:24.417Z,-10.62
2023-02-13T15:33:33.785Z,-10.49
2023-02-13T15:36:44.766Z,-10.58
2023-02-13T15:39:53.745Z,-10.71
2023-02-13T15:43:00.826Z,-10.63
2023-02-13T15:46:21.673Z,-10.71
2023-02-13T15:49:28.455Z,-10.77
2023-02-13T15:52:53.385Z,-10.79
2023-02-13T15:59:18.587Z,-10.87
2023-02-13T16:02:37.139Z,-10.89
2023-02-13T16:05:45.268Z,-10.87
2023-02-13T16:12:27.825Z,-11.17
2023-02-13T16:15:33.664Z,-11.31
2023-02-13T16:18:40.833Z,-11.39
2023-02-13T16:21:54.955Z,-11.42
2023-02-13T16:25:18.664Z,-11.48
2023-02-13T16:28:33.251Z,-11.62
2023-02-13T16:31:39.866Z,-11.73
2023-02-13T16:34:50.956Z,-11.76
2023-02-13T16:38:04.758Z,-11.80
2023-02-13T16:41:24.510Z,-11.72
2023-02-13T16:44:32.422Z,-11.86
2023-02-13T16:47:37.305Z,-12.06
2023-02-13T16:50:41.746Z,-11.90
2023-02-13T16:53:46.774Z,-12.10
2023-02-13T16:56:58.451Z,-12.21
2023-02-13T17:00:20.510Z,-12.24
2023-02-13T17:03:24.425Z,-12.24
2023-02-13T17:06:37.343Z,-12.18
2023-02-13T17:09:43.056Z,-12.10
2023-02-13T17:12:51.932Z,-12.04
2023-02-13T17:19:16.080Z,-12.18
2023-02-13T17:22:42.049Z,-12.17
2023-02-13T17:32:29.061Z,-12.20
2023-02-13T17:35:33.220Z,-12.28
2023-02-13T17:38:36.538Z,-12.35
2023-02-13T17:45:02.204Z,-12.56
2023-02-13T17:48:10.023Z,-12.63
2023-02-13T17:51:19.756Z,-12.74
2023-02-13T17:54:28.748Z,-12.79
2023-02-13T17:57:45.893Z,-12.79
2023-02-13T18:00:54.075Z,-12.84
2023-02-13T18:10:40.336Z,-12.77
2023-02-13T18:17:07.803Z,-12.84
2023-02-13T18:20:25.050Z,-12.91
2023-02-13T18:23:30.498Z,-13.30
2023-02-13T18:26:35.227Z,-13.44
2023-02-13T18:29:38.649Z,-13.60
2023-02-13T18:33:05.395Z,-13.75
2023-02-13T18:36:10.730Z,-13.77
2023-02-13T18:39:14.327Z,-13.71
2023-02-13T18:42:20.560Z,-13.79
2023-02-13T18:45:24.067Z,-13.78
2023-02-13T18:48:32.434Z,-13.96
2023-02-13T18:51:36.760Z,-14.09
2023-02-13T18:54:44.293Z,-14.09
2023-02-13T18:57:49.112Z,-14.05
2023-02-13T19:00:54.465Z,-14.09
2023-02-13T19:07:15.867Z,-14.16
2023-02-13T19:10:19.064Z,-14.26
2023-02-13T19:13:28.934Z,-14.39
2023-02-13T19:16:35.393Z,-14.44
2023-02-13T19:19:46.196Z,-14.64
2023-02-13T19:26:11.358Z,-14.59
2023-02-13T19:29:25.510Z,-14.47
2023-02-13T19:32:36.921Z,-14.67
2023-02-13T19:35:41.704Z,-14.77
2023-02-13T19:38:46.852Z,-14.77
2023-02-13T19:41:57.261Z,-14.84
2023-02-13T19:45:02.700Z,-14.93
2023-02-13T19:48:06.771Z,-14.96
2023-02-13T19:51:17.004Z,-14.98
2023-02-13T19:54:20.918Z,-14.84
2023-02-13T19:57:31.042Z,-14.77
2023-02-13T20:00:40.849Z,-14.79
2023-02-13T20:03:56.694Z,-15.05
2023-02-13T20:07:04.141Z,-15.10
2023-02-13T20:10:10.990Z,-15.05
2023-02-13T20:13:18.682Z,-15.00
2023-02-13T20:16:26.183Z,-15.05
2023-02-13T20:19:36.767Z,-15.23
2023-02-13T20:22:45.484Z,-15.27
2023-02-13T20:25:58.881Z,-15.28
2023-02-13T20:29:11.393Z,-15.27
2023-02-13T20:32:16.759Z,-15.37
2023-02-13T20:35:22.130Z,-15.41
2023-02-13T20:38:32.442Z,-15.40
2023-02-13T20:41:36.944Z,-15.34
2023-02-13T20:44:44.654Z,-15.37
2023-02-13T20:47:48.975Z,-15.26
2023-02-13T20:51:05.622Z,-15.24
2023-02-13T20:54:12.112Z,-15.31
2023-02-13T20:57:36.695Z,-15.40
2023-02-13T21:03:58.580Z,-15.38
2023-02-13T21:07:13.507Z,-15.45
2023-02-13T21:10:27.039Z,-15.69
2023-02-13T21:13:34.570Z,-15.79
2023-02-13T21:16:46.551Z,-15.78
2023-02-13T21:19:57.280Z,-15.85
2023-02-13T21:23:05.522Z,-15.76
2023-02-13T21:26:35.558Z,-15.73
2023-02-13T21:32:57.435Z,-15.61
2023-02-13T21:36:04.134Z,-15.50
2023-02-13T21:39:11.012Z,-15.45
2023-02-13T21:42:17.920Z,-15.50
2023-02-13T21:45:27.290Z,-15.54
2023-02-13T21:48:33.188Z,-15.54
2023-02-13T21:51:46.651Z,-15.55
2023-02-13T21:54:52.545Z,-15.54
2023-02-13T21:57:58.661Z,-15.50
2023-02-13T22:01:11.547Z,-15.55
2023-02-13T22:04:20.036Z,-15.64
2023-02-13T22:07:25.694Z,-15.71
2023-02-13T22:10:32.299Z,-15.89
2023-02-13T22:13:43.465Z,-15.90
2023-02-13T22:16:51.811Z,-15.82
2023-02-13T22:20:04.201Z,-15.79
2023-02-13T22:23:29.196Z,-16.06
2023-02-13T22:26:41.106Z,-16.21
2023-02-13T22:29:48.461Z,-16.17
2023-02-13T22:36:17.813Z,-16.10
2023-02-13T22:39:23.285Z,-16.30
2023-02-13T22:45:50.146Z,-16.13
2023-02-13T22:52:17.348Z,-16.22
2023-02-13T22:58:44.574Z,-16.55
2023-02-13T23:02:00.428Z,-16.51
2023-02-13T23:05:04.939Z,-16.56
2023-02-13T23:08:17.213Z,-16.69
2023-02-13T23:11:47.488Z,-16.53
2023-02-13T23:18:19.491Z,-16.53
2023-02-13T23:28:22.897Z,-16.56
